Woodside, California
Current Conditions -  °F | °C
As of 12:47 PM on Saturday 25 Oct 2014 (Local Time) from KSQL Reporting Station
Broken Clouds Broken Clouds  
Wind Chill: 70°   Ceiling: 5000
Heat Index: 70°   Visibility: 10mi
Dew Point: 54°   Wind: 14mph
Humidity: 56%   Direction: 230°SW
Pressure: 30.08"   Gusts: 18mph
Location:  37.4497°N, 122.329°W
Report Text: KSQL 251947Z 23012G16KT 10SM SCT034 BKN050 21/12 A3008
Loading
Personal Weather Stations






























Interactive Weather Map
Tropical Storm Tracking
New forecast layout! Learn more

10-Day Weather Forecast

Advertisements
Track Severe Weather on mobile